Time;durP1;ratioP1;P1;durP2;ratioP2;P2;SDS_P1;SDS_P2;PMS_P1;PMS_P2;Temp;Humidity;BMP_temperature;BMP_pressure;BME280_temperature;BME280_humidity;BME280_pressure;Samples;Min_cycle;Max_cycle;Signal;HPM_P1;HPM_P2
2020/12/21 00:01:11;;;;;;;20.45;9.50;;;;;;;4.49;78.77;100327.94;5072900;28;20032;-71
2020/12/21 00:03:37;;;;;;;23.20;10.55;;;;;;;4.43;79.03;100326.13;5072904;28;20399;-74
2020/12/21 00:06:06;;;;;;;29.70;10.20;;;;;;;4.43;79.49;100328.78;5087887;28;20556;-71
2020/12/21 00:08:32;;;;;;;25.27;10.65;;;;;;;4.40;78.61;100321.25;5072056;28;20037;-72
2020/12/21 00:10:57;;;;;;;24.48;9.68;;;;;;;4.40;78.73;100331.84;5071595;28;20506;-71
2020/12/21 00:13:24;;;;;;;22.95;9.27;;;;;;;4.36;78.79;100326.13;5071065;28;20048;-72
2020/12/21 00:15:50;;;;;;;22.88;9.38;;;;;;;4.35;78.88;100315.75;5072159;28;20472;-72
2020/12/21 00:18:15;;;;;;;26.67;9.43;;;;;;;4.33;79.25;100330.00;5071609;28;20052;-72
2020/12/21 00:20:40;;;;;;;20.75;10.13;;;;;;;4.31;79.19;100326.75;5071970;28;20384;-71
2020/12/21 00:23:06;;;;;;;19.48;9.05;;;;;;;4.29;79.24;100328.75;5070640;28;20016;-71
2020/12/21 00:25:31;;;;;;;23.42;10.43;;;;;;;4.22;79.59;100319.19;5070484;28;20402;-72
2020/12/21 00:27:57;;;;;;;27.33;10.60;;;;;;;4.23;79.53;100320.84;5071932;28;20032;-72
2020/12/21 00:30:22;;;;;;;23.92;10.05;;;;;;;4.23;79.70;100321.63;5072349;28;20028;-72
2020/12/21 00:32:47;;;;;;;23.85;9.48;;;;;;;4.28;79.83;100331.63;5071317;28;20127;-72
2020/12/21 00:35:13;;;;;;;26.92;10.65;;;;;;;4.23;79.48;100324.28;5070597;28;20039;-71
2020/12/21 00:37:38;;;;;;;28.02;10.50;;;;;;;4.28;79.90;100342.22;5071864;28;20025;-71
2020/12/21 00:40:03;;;;;;;24.55;10.20;;;;;;;4.19;79.53;100325.72;5071132;28;20020;-71
2020/12/21 00:42:29;;;;;;;25.65;10.60;;;;;;;4.21;79.03;100344.03;5071817;28;20025;-71
2020/12/21 00:44:54;;;;;;;28.02;9.15;;;;;;;4.15;78.73;100324.47;5069920;28;20028;-71
2020/12/21 00:47:20;;;;;;;22.15;9.40;;;;;;;4.10;78.54;100319.81;5070463;28;20024;-71
2020/12/21 00:49:45;;;;;;;20.10;8.35;;;;;;;4.18;79.10;100339.16;5071475;28;20099;-71
2020/12/21 00:52:10;;;;;;;19.98;9.52;;;;;;;4.09;78.53;100318.16;5071658;28;20028;-72
2020/12/21 00:54:36;;;;;;;19.80;8.43;;;;;;;4.15;78.39;100338.53;5071342;28;20059;-71
2020/12/21 00:57:01;;;;;;;22.17;9.55;;;;;;;4.09;78.55;100322.63;5071466;28;20028;-71
2020/12/21 00:59:26;;;;;;;20.92;8.95;;;;;;;4.11;78.47;100321.44;5071269;28;20162;-73
2020/12/21 01:01:52;;;;;;;22.05;10.32;;;;;;;4.15;78.69;100332.41;5071276;28;20032;-71
2020/12/21 01:04:17;;;;;;;22.90;8.27;;;;;;;4.11;79.07;100316.13;5071133;28;20024;-73
2020/12/21 01:06:42;;;;;;;30.58;10.05;;;;;;;4.09;78.06;100331.41;5070106;28;20021;-71
2020/12/21 01:09:11;;;;;;;24.30;8.85;;;;;;;4.02;78.14;100320.00;5071191;28;20030;-71
2020/12/21 01:11:37;;;;;;;21.27;9.98;;;;;;;4.06;77.98;100320.41;5071647;28;20052;-71
2020/12/21 01:14:03;;;;;;;22.48;9.38;;;;;;;4.06;77.87;100325.69;5071011;28;20033;-73
2020/12/21 01:16:28;;;;;;;29.65;9.13;;;;;;;4.05;78.00;100321.41;5071573;28;20047;-70
2020/12/21 01:18:54;;;;;;;25.08;8.80;;;;;;;3.97;78.37;100310.00;5069700;28;20103;-70
2020/12/21 01:21:29;;;;;;;23.50;9.68;;;;;;;4.07;77.98;100328.13;5070734;28;20035;-72
2020/12/21 01:23:56;;;;;;;19.65;8.45;;;;;;;4.09;78.14;100323.47;5070884;28;20040;-71
2020/12/21 01:26:21;;;;;;;19.50;8.93;;;;;;;4.06;77.93;100321.19;5070923;28;20060;-73
2020/12/21 01:28:48;;;;;;;19.50;8.98;;;;;;;4.04;77.50;100327.72;5069680;28;20056;-73
2020/12/21 01:31:13;;;;;;;18.83;8.25;;;;;;;3.93;77.22;100308.78;5071077;28;20056;-72
2020/12/21 01:33:39;;;;;;;21.30;8.60;;;;;;;4.09;77.22;100319.97;5069452;28;20072;-72
2020/12/21 01:36:04;;;;;;;17.02;7.85;;;;;;;4.07;77.68;100322.03;5070560;28;20035;-73
2020/12/21 01:38:30;;;;;;;14.82;7.47;;;;;;;4.05;77.65;100308.19;5071038;28;20025;-74
2020/12/21 01:40:55;;;;;;;17.50;8.35;;;;;;;4.08;77.14;100310.44;5070419;28;20025;-75
2020/12/21 01:43:20;;;;;;;16.20;8.02;;;;;;;3.99;76.88;100301.84;5069357;28;20059;-71
2020/12/21 01:45:46;;;;;;;16.33;6.57;;;;;;;4.04;77.02;100319.78;5069669;28;20411;-73
2020/12/21 01:48:11;;;;;;;18.92;8.82;;;;;;;4.00;76.92;100314.06;5070045;28;20407;-73
2020/12/21 01:50:37;;;;;;;20.88;7.68;;;;;;;3.96;77.27;100308.34;5070802;28;20531;-72
2020/12/21 01:53:02;;;;;;;24.17;7.93;;;;;;;3.97;77.52;100309.19;5069313;28;20055;-71
2020/12/21 01:55:29;;;;;;;18.92;7.88;;;;;;;3.98;78.23;100308.97;5069259;28;20039;-72
2020/12/21 01:57:55;;;;;;;19.13;7.50;;;;;;;3.91;78.42;100302.84;5070348;28;20111;-72
2020/12/21 02:00:21;;;;;;;18.58;8.43;;;;;;;3.95;78.19;100309.38;5070419;28;20473;-71
2020/12/21 02:02:46;;;;;;;15.88;6.93;;;;;;;3.96;78.06;100311.00;5070639;28;20032;-71
2020/12/21 02:05:11;;;;;;;16.10;7.35;;;;;;;3.90;77.65;100295.13;5070420;28;20112;-72
2020/12/21 02:07:37;;;;;;;18.75;8.27;;;;;;;3.93;77.61;100303.47;5070236;28;20090;-72
2020/12/21 02:10:03;;;;;;;21.98;8.15;;;;;;;3.96;77.83;100307.56;5069237;28;20093;-72
2020/12/21 02:12:28;;;;;;;16.38;7.53;;;;;;;3.94;78.32;100299.00;5070192;28;20033;-72
2020/12/21 02:14:53;;;;;;;17.05;7.32;;;;;;;3.93;77.84;100308.78;5068942;28;20548;-72
2020/12/21 02:17:19;;;;;;;14.70;6.75;;;;;;;3.93;77.85;100305.28;5069367;28;20036;-72
2020/12/21 02:19:44;;;;;;;17.42;6.63;;;;;;;3.90;77.70;100303.88;5069134;28;20532;-74
2020/12/21 02:22:11;;;;;;;16.90;6.90;;;;;;;3.83;77.74;100301.22;5068959;28;20032;-74
2020/12/21 02:24:39;;;;;;;19.52;8.40;;;;;;;3.85;78.67;100301.00;5070396;28;20115;-76
2020/12/21 02:27:04;;;;;;;18.67;7.95;;;;;;;3.76;78.95;100286.31;5068772;28;20033;-71
2020/12/21 02:29:30;;;;;;;16.27;7.45;;;;;;;3.81;78.55;100292.66;5070530;28;20094;-75
2020/12/21 02:31:55;;;;;;;19.70;7.82;;;;;;;3.80;78.37;100292.88;5067885;28;20502;-75
2020/12/21 02:34:21;;;;;;;15.23;8.10;;;;;;;3.78;78.82;100290.41;5072718;28;20045;-75
2020/12/21 02:36:47;;;;;;;12.43;6.15;;;;;;;3.75;78.55;100290.81;5072597;28;20082;-75
2020/12/21 02:39:13;;;;;;;16.90;7.00;;;;;;;3.75;78.48;100289.97;5072674;28;20384;-75
2020/12/21 02:41:38;;;;;;;15.07;6.43;;;;;;;3.74;78.78;100293.66;5072575;28;20115;-75
2020/12/21 02:44:03;;;;;;;15.35;7.43;;;;;;;3.71;79.24;100289.59;5072516;28;20122;-76
2020/12/21 02:46:29;;;;;;;16.70;7.43;;;;;;;3.73;79.02;100289.38;5072772;28;20472;-72
2020/12/21 02:48:54;;;;;;;18.73;6.88;;;;;;;3.68;79.05;100282.84;5071959;28;20062;-72
2020/12/21 02:51:20;;;;;;;15.68;6.72;;;;;;;3.72;79.12;100285.09;5074107;28;20040;-72
2020/12/21 02:53:45;;;;;;;12.80;6.05;;;;;;;3.65;79.49;100283.25;5074130;28;20463;-71
2020/12/21 02:56:11;;;;;;;17.23;6.65;;;;;;;3.67;79.17;100288.34;5073467;28;20036;-74
2020/12/21 02:58:38;;;;;;;19.58;7.18;;;;;;;3.66;79.27;100286.72;5072370;28;20036;-72
2020/12/21 03:01:03;;;;;;;14.77;7.25;;;;;;;3.66;79.41;100287.53;5072327;28;20132;-74
2020/12/21 03:03:28;;;;;;;14.98;6.68;;;;;;;3.64;79.00;100281.63;5072178;28;20078;-75
2020/12/21 03:05:54;;;;;;;15.88;7.43;;;;;;;3.69;79.09;100291.63;5071778;28;20075;-75
2020/12/21 03:08:19;;;;;;;18.13;6.97;;;;;;;3.67;79.26;100294.47;5072350;28;20040;-75
2020/12/21 03:10:45;;;;;;;18.42;6.63;;;;;;;3.68;79.66;100288.13;5073610;28;20031;-75
2020/12/21 03:13:10;;;;;;;14.77;7.60;;;;;;;3.73;79.30;100292.03;5073372;28;20384;-74
2020/12/21 03:15:36;;;;;;;15.73;6.50;;;;;;;3.74;79.37;100293.66;5072163;28;20226;-75
2020/12/21 03:18:02;;;;;;;16.45;7.05;;;;;;;3.75;79.68;100287.34;5071862;28;20058;-74
2020/12/21 03:20:28;;;;;;;18.80;7.70;;;;;;;3.79;79.85;100291.22;5071985;28;20388;-72
2020/12/21 03:22:53;;;;;;;13.75;6.13;;;;;;;3.80;79.76;100291.03;5072576;28;20033;-74
2020/12/21 03:25:19;;;;;;;17.30;8.80;;;;;;;3.82;78.88;100283.72;5073001;28;20037;-73
2020/12/21 03:27:44;;;;;;;17.55;7.45;;;;;;;3.83;79.05;100271.28;5072025;28;20028;-72
2020/12/21 03:30:10;;;;;;;18.10;7.35;;;;;;;3.92;78.80;100285.97;5072863;28;20407;-74
2020/12/21 03:32:36;;;;;;;16.83;7.43;;;;;;;3.96;78.79;100287.19;5071946;28;20033;-72
2020/12/21 03:35:03;;;;;;;17.17;7.25;;;;;;;3.95;78.28;100285.56;5072987;28;20029;-72
2020/12/21 03:37:32;;;;;;;15.02;7.60;;;;;;;3.99;78.12;100285.97;5073436;28;20030;-72
2020/12/21 03:40:01;;;;;;;18.35;7.47;;;;;;;4.01;78.25;100287.38;5071487;28;20421;-72
2020/12/21 03:42:26;;;;;;;18.50;7.82;;;;;;;4.05;78.11;100285.16;5071735;28;20403;-72
2020/12/21 03:44:51;;;;;;;19.60;7.13;;;;;;;4.11;78.26;100294.97;5071067;28;20130;-72
2020/12/21 03:47:17;;;;;;;17.90;7.53;;;;;;;4.11;77.82;100292.31;5072656;28;20077;-74
2020/12/21 03:49:43;;;;;;;16.52;7.07;;;;;;;4.15;77.85;100293.53;5072653;28;20033;-74
2020/12/21 03:52:08;;;;;;;15.25;6.15;;;;;;;4.11;77.31;100279.06;5071018;28;20101;-74
2020/12/21 03:54:34;;;;;;;19.50;7.20;;;;;;;4.13;77.54;100287.59;5071102;28;20087;-75
2020/12/21 03:56:59;;;;;;;16.85;7.03;;;;;;;4.08;76.92;100287.41;5070884;28;20028;-72
2020/12/21 03:59:24;;;;;;;14.68;6.40;;;;;;;4.14;76.75;100288.44;5072505;28;20024;-73
2020/12/21 04:01:50;;;;;;;15.48;6.47;;;;;;;4.15;76.97;100303.28;5072391;28;20419;-72
2020/12/21 04:04:15;;;;;;;15.25;7.35;;;;;;;4.18;76.66;100299.44;5072627;28;20031;-73
2020/12/21 04:06:40;;;;;;;15.07;5.90;;;;;;;4.20;76.73;100295.56;5070854;28;20074;-73
2020/12/21 04:09:06;;;;;;;18.10;6.88;;;;;;;4.19;76.16;100295.75;5070983;28;20047;-72
2020/12/21 04:11:31;;;;;;;15.55;7.70;;;;;;;4.16;76.18;100292.50;5071125;28;20125;-71
2020/12/21 04:13:56;;;;;;;13.55;6.70;;;;;;;4.18;76.54;100300.25;5071714;28;20024;-72
2020/12/21 04:16:22;;;;;;;16.52;6.43;;;;;;;4.18;76.40;100302.09;5072352;28;20117;-71
2020/12/21 04:18:47;;;;;;;19.08;6.88;;;;;;;4.15;76.32;100295.34;5071960;28;20025;-71
2020/12/21 04:21:13;;;;;;;15.60;7.53;;;;;;;4.13;76.41;100290.25;5072346;28;20040;-72
2020/12/21 04:23:40;;;;;;;14.50;6.47;;;;;;;4.19;76.38;100295.75;5072014;28;20038;-72
2020/12/21 04:26:05;;;;;;;16.48;6.90;;;;;;;4.23;76.51;100302.28;5071421;28;20092;-71
2020/12/21 04:28:31;;;;;;;14.48;6.65;;;;;;;4.23;76.02;100300.44;5072181;28;20042;-71
2020/12/21 04:31:00;;;;;;;18.27;6.75;;;;;;;4.23;76.67;100300.44;5071671;28;20101;-71
2020/12/21 04:33:26;;;;;;;;;;;;;;;4.26;75.78;100299.22;5072228;28;20063;-70
2020/12/21 04:35:51;;;;;;;14.88;7.15;;;;;;;4.25;76.29;100295.78;5071564;28;19917;-72
2020/12/21 04:38:16;;;;;;;15.15;7.22;;;;;;;4.20;76.26;100286.81;5071084;28;20544;-72
2020/12/21 04:40:42;;;;;;;17.00;7.10;;;;;;;4.23;75.94;100303.09;5071408;28;20036;-74
2020/12/21 04:43:08;;;;;;;17.25;7.28;;;;;;;4.21;76.13;100286.63;5071335;28;20494;-71
2020/12/21 04:45:34;;;;;;;19.90;7.78;;;;;;;4.21;76.26;100291.91;5071517;28;20086;-72
2020/12/21 04:48:02;;;;;;;18.55;6.32;;;;;;;4.20;76.01;100302.69;5071099;28;20028;-71
2020/12/21 04:50:32;;;;;;;17.23;7.22;;;;;;;4.16;76.85;100304.91;5071743;28;20039;-72
2020/12/21 04:52:59;;;;;;;16.92;7.60;;;;;;;4.12;76.48;100293.91;5070859;28;20514;-71
2020/12/21 04:55:25;;;;;;;18.33;7.22;;;;;;;4.19;76.62;100304.53;5070450;28;20024;-72
2020/12/21 04:58:02;;;;;;;14.88;6.00;;;;;;;4.19;76.65;100311.63;5071422;28;20111;-72
2020/12/21 05:00:30;;;;;;;15.82;6.47;;;;;;;4.20;76.62;100307.97;5067539;28;20505;-71
2020/12/21 05:02:56;;;;;;;14.10;7.43;;;;;;;4.20;76.66;100298.22;5071218;28;20396;-72
2020/12/21 05:05:31;;;;;;;15.82;6.20;;;;;;;4.19;76.54;100295.75;5071106;28;20031;-72
2020/12/21 05:07:58;;;;;;;19.05;7.28;;;;;;;4.24;76.02;100304.72;5071155;28;20025;-72
2020/12/21 05:10:23;;;;;;;13.73;5.82;;;;;;;4.27;75.94;100303.50;5071439;28;20096;-72
2020/12/21 05:13:02;;;;;;;18.17;6.18;;;;;;;4.26;76.00;100299.22;5071663;28;20112;-72
2020/12/21 05:15:27;;;;;;;;;;;;;;;4.32;75.86;100309.00;5069995;28;20067;-71
2020/12/21 05:18:03;;;;;;;17.75;7.20;;;;;;;4.33;75.64;100314.13;5071150;28;19982;-72
2020/12/21 05:20:28;;;;;;;17.17;7.50;;;;;;;4.36;75.69;100310.25;5071186;28;20032;-72
2020/12/21 05:22:54;;;;;;;13.45;6.70;;;;;;;4.31;75.95;100297.59;5071217;28;20483;-73
2020/12/21 05:25:20;;;;;;;18.00;7.70;;;;;;;4.38;75.66;100315.34;5071210;28;20044;-72
2020/12/21 05:27:45;;;;;;;15.10;6.30;;;;;;;4.35;75.42;100311.25;5071025;28;20025;-71
2020/12/21 05:30:10;;;;;;;17.38;6.97;;;;;;;4.36;75.44;100309.41;5070823;28;20108;-71
2020/12/21 05:32:36;;;;;;;27.75;10.95;;;;;;;4.31;75.61;100310.03;5069401;28;20020;-71
2020/12/21 05:35:06;;;;;;;27.25;12.98;;;;;;;4.40;75.35;100327.34;5070449;28;20522;-71
2020/12/21 05:37:32;;;;;;;16.95;7.00;;;;;;;4.37;75.27;100322.47;5071044;28;20033;-71
2020/12/21 05:39:57;;;;;;;20.50;7.70;;;;;;;4.36;75.65;100314.72;5071211;28;20038;-72
2020/12/21 05:42:24;;;;;;;18.67;7.47;;;;;;;4.41;75.55;100333.47;5069240;28;20094;-72
2020/12/21 05:44:57;;;;;;;12.93;6.55;;;;;;;4.41;75.12;100328.19;5069579;28;20036;-73
2020/12/21 05:47:26;;;;;;;14.45;6.30;;;;;;;4.42;75.26;100330.63;5070159;28;20040;-73
2020/12/21 05:49:57;;;;;;;13.20;7.25;;;;;;;4.35;75.46;100321.84;5070491;28;20457;-74
2020/12/21 05:52:38;;;;;;;18.00;7.10;;;;;;;4.41;75.22;100334.28;5069024;28;20044;-75
2020/12/21 05:55:06;;;;;;;15.43;7.40;;;;;;;4.43;75.53;100342.00;5069291;28;20029;-74
2020/12/21 05:57:32;;;;;;;18.13;8.25;;;;;;;4.42;75.42;100327.13;5069330;28;20024;-71
2020/12/21 05:59:59;;;;;;;14.82;6.82;;;;;;;4.38;75.31;100329.41;5070538;28;20448;-72
2020/12/21 06:02:26;;;;;;;15.10;6.82;;;;;;;4.40;75.36;100331.84;5070467;28;20028;-72
2020/12/21 06:05:03;;;;;;;16.92;7.85;;;;;;;4.28;75.60;100323.69;5070619;28;20037;-71
2020/12/21 06:07:30;;;;;;;17.42;6.95;;;;;;;4.32;76.03;100331.03;5072133;28;20108;-72
2020/12/21 06:09:58;;;;;;;16.77;7.43;;;;;;;4.29;76.14;100330.59;5073173;28;20048;-72
2020/12/21 06:12:26;;;;;;;19.83;9.07;;;;;;;4.29;76.43;100336.72;5072521;28;20179;-74
2020/12/21 06:14:56;;;;;;;19.67;8.18;;;;;;;4.28;76.21;100328.97;5067950;28;20461;-75
2020/12/21 06:17:22;;;;;;;25.08;9.38;;;;;;;4.24;76.27;100325.91;5073921;28;20059;-73
2020/12/21 06:19:47;;;;;;;22.08;8.60;;;;;;;4.23;76.72;100329.56;5074559;28;20028;-75
2020/12/21 06:22:24;;;;;;;22.75;8.88;;;;;;;4.23;77.10;100329.56;5074295;28;20025;-75
2020/12/21 06:24:49;;;;;;;28.88;11.15;;;;;;;4.21;77.10;100330.81;5072651;28;20048;-76
2020/12/21 06:27:15;;;;;;;22.27;9.30;;;;;;;4.13;77.10;100323.88;5072071;28;20503;-71
2020/12/21 06:29:42;;;;;;;26.35;10.65;;;;;;;4.18;76.93;100328.56;5072961;28;20036;-74
2020/12/21 06:32:08;;;;;;;27.77;11.35;;;;;;;4.18;76.86;100333.88;5072825;28;20549;-74
2020/12/21 06:34:35;;;;;;;24.35;9.45;;;;;;;4.14;76.94;100328.16;5072003;28;20044;-76
2020/12/21 06:37:01;;;;;;;15.48;8.45;;;;;;;4.12;77.37;100332.84;5072356;28;20123;-75
2020/12/21 06:39:26;;;;;;;18.60;8.13;;;;;;;4.09;77.29;100325.28;5072510;28;20025;-76
2020/12/21 06:42:13;;;;;;;23.42;9.60;;;;;;;4.10;77.05;100334.84;5072651;28;20032;-76
2020/12/21 06:44:40;;;;;;;17.52;8.13;;;;;;;3.94;77.56;100307.75;5072544;28;20512;-73
2020/12/21 06:47:07;;;;;;;20.65;8.40;;;;;;;4.13;77.65;100340.56;5072923;28;20081;-71
2020/12/21 06:49:33;;;;;;;15.02;7.07;;;;;;;4.04;77.68;100328.56;5071939;28;20041;-71
2020/12/21 06:51:58;;;;;;;32.80;11.20;;;;;;;4.15;77.29;100341.19;5073280;28;20039;-71
2020/12/21 06:54:24;;;;;;;19.42;8.75;;;;;;;4.19;77.21;100340.75;5071640;28;20097;-71
2020/12/21 06:56:50;;;;;;;20.38;8.50;;;;;;;4.20;77.13;100330.00;5073729;28;20089;-72
2020/12/21 06:59:18;;;;;;;16.42;7.35;;;;;;;4.21;76.84;100322.84;5072853;28;20040;-71
2020/12/21 07:01:48;;;;;;;17.90;8.27;;;;;;;4.20;76.45;100322.06;5071905;28;20078;-72
2020/12/21 07:04:22;;;;;;;20.35;7.72;;;;;;;4.26;76.06;100336.31;5072088;28;20412;-72
2020/12/21 07:06:49;;;;;;;16.10;8.27;;;;;;;4.25;76.81;100340.00;5072420;28;20029;-72
2020/12/21 07:09:23;;;;;;;16.67;7.65;;;;;;;4.18;76.19;100333.88;5071232;28;20115;-71
2020/12/21 07:11:56;;;;;;;15.00;6.68;;;;;;;4.22;76.04;100340.38;5073408;28;20655;-71
2020/12/21 07:14:23;;;;;;;13.77;7.07;;;;;;;4.15;76.19;100349.13;5073236;28;20028;-72
2020/12/21 07:17:00;;;;;;;19.85;7.60;;;;;;;4.23;76.34;100356.06;5073186;28;20032;-72
2020/12/21 07:19:25;;;;;;;16.70;7.32;;;;;;;4.24;75.79;100349.75;5071141;28;20108;-71
2020/12/21 07:21:53;;;;;;;16.42;7.13;;;;;;;4.14;75.68;100338.75;5073428;28;20115;-73
2020/12/21 07:24:21;;;;;;;17.23;6.68;;;;;;;4.13;75.58;100343.22;5072473;28;20039;-73
2020/12/21 07:26:47;;;;;;;18.05;7.65;;;;;;;4.19;75.24;100352.19;5071324;28;20469;-72
2020/12/21 07:29:13;;;;;;;21.05;7.45;;;;;;;4.18;75.78;100347.09;5072748;28;20089;-73
2020/12/21 07:31:39;;;;;;;16.40;6.82;;;;;;;4.17;75.33;100343.63;5071957;28;20476;-72
2020/12/21 07:34:04;;;;;;;17.73;6.50;;;;;;;4.18;75.02;100342.63;5071598;28;20044;-71
2020/12/21 07:36:34;;;;;;;18.80;7.38;;;;;;;4.21;76.24;100344.88;5065285;28;20021;-71
2020/12/21 07:39:12;;;;;;;15.60;6.63;;;;;;;4.22;75.90;100345.69;5065186;28;20465;-70
2020/12/21 07:42:01;;;;;;;17.75;6.90;;;;;;;4.31;75.97;100355.88;5071488;28;20032;-73
2020/12/21 07:44:26;;;;;;;;;;;;;;;4.38;75.83;100352.41;5071571;28;20222;-72
2020/12/21 07:46:58;;;;;;;12.27;6.15;;;;;;;4.41;75.21;100352.81;5060226;28;20033;-72
2020/12/21 07:49:24;;;;;;;18.50;7.82;;;;;;;4.45;75.37;100353.22;5068629;28;20469;-74
2020/12/21 07:51:56;;;;;;;13.18;6.47;;;;;;;4.49;74.95;100338.56;5071583;28;20021;-71
2020/12/21 07:54:22;;;;;;;15.18;7.63;;;;;;;4.58;75.23;100341.84;5072141;28;20106;-71
2020/12/21 07:56:58;;;;;;;18.38;7.25;;;;;;;4.62;74.43;100343.84;5070901;28;20024;-72
2020/12/21 07:59:24;;;;;;;14.70;6.85;;;;;;;4.69;74.17;100353.63;5055858;28;20028;-72
2020/12/21 08:01:56;;;;;;;15.55;6.28;;;;;;;4.70;73.88;100358.75;5055413;28;20021;-72
2020/12/21 08:04:22;;;;;;;17.38;7.63;;;;;;;4.67;73.84;100351.19;5071144;28;20077;-72
2020/12/21 08:06:47;;;;;;;16.95;7.05;;;;;;;4.60;73.90;100345.91;5070800;28;20021;-72
2020/12/21 08:09:13;;;;;;;16.95;7.90;;;;;;;4.67;74.43;100353.03;5070771;28;20032;-72
2020/12/21 08:11:40;;;;;;;13.52;6.75;;;;;;;4.68;74.37;100346.72;5072453;28;20115;-71
2020/12/21 08:14:23;;;;;;;16.45;7.22;;;;;;;4.66;74.35;100354.84;5069579;28;20029;-73
2020/12/21 08:16:48;;;;;;;17.75;6.95;;;;;;;4.65;74.13;100355.88;5071531;28;20511;-72
2020/12/21 08:19:20;;;;;;;20.75;8.18;;;;;;;4.61;74.22;100336.94;5070413;28;20096;-72
2020/12/21 08:21:46;;;;;;;20.98;8.13;;;;;;;4.62;74.22;100346.50;5070228;28;20044;-72
2020/12/21 08:24:11;;;;;;;19.02;8.25;;;;;;;4.70;74.42;100352.63;5070518;28;20111;-73
2020/12/21 08:26:38;;;;;;;18.17;7.20;;;;;;;4.70;74.36;100340.19;5070786;28;20031;-74
2020/12/21 08:29:04;;;;;;;19.42;8.15;;;;;;;4.81;74.41;100352.03;5070146;28;20032;-73
2020/12/21 08:31:30;;;;;;;14.80;7.25;;;;;;;4.84;73.01;100351.59;5070395;28;20029;-72
2020/12/21 08:33:58;;;;;;;19.50;8.10;;;;;;;4.87;72.69;100356.50;5071599;28;20048;-73
2020/12/21 08:36:26;;;;;;;20.40;7.47;;;;;;;4.86;73.14;100352.22;5069278;28;20395;-74
2020/12/21 08:38:52;;;;;;;13.43;7.70;;;;;;;4.88;73.58;100350.19;5066914;28;20033;-72
2020/12/21 08:41:19;;;;;;;16.75;6.18;;;;;;;4.94;72.94;100354.66;5070674;28;20028;-75
2020/12/21 08:43:45;;;;;;;13.77;6.03;;;;;;;4.93;71.65;100349.53;5070395;28;20032;-75
2020/12/21 08:46:12;;;;;;;19.30;6.13;;;;;;;4.92;70.92;100350.56;5087243;28;20503;-75
2020/12/21 08:48:43;;;;;;;11.95;5.95;;;;;;;4.93;70.70;100346.88;5070047;28;20036;-75
2020/12/21 08:51:11;;;;;;;18.10;7.22;;;;;;;4.89;70.77;100335.06;5070205;28;20185;-76
2020/12/21 08:53:36;;;;;;;18.75;7.70;;;;;;;4.87;70.81;100332.63;5070304;28;20078;-75
2020/12/21 08:56:12;;;;;;;15.75;7.28;;;;;;;4.86;71.00;100331.00;5070208;28;20123;-76
2020/12/21 08:58:38;;;;;;;13.57;5.88;;;;;;;4.86;70.57;100332.81;5070136;28;20108;-78
2020/12/21 09:01:08;;;;;;;15.38;7.03;;;;;;;4.89;70.95;100337.72;5070141;28;20538;-80
2020/12/21 09:03:34;;;;;;;15.00;7.07;;;;;;;4.90;70.82;100334.84;5070145;28;20032;-78
2020/12/21 09:06:00;;;;;;;14.02;7.13;;;;;;;4.90;69.97;100328.75;5069963;28;20028;-77
2020/12/21 09:08:27;;;;;;;17.20;7.53;;;;;;;4.87;70.61;100324.69;5069886;28;20055;-78
2020/12/21 09:10:52;;;;;;;17.63;7.93;;;;;;;4.87;70.61;100316.72;5070053;28;20032;-77
2020/12/21 09:13:18;;;;;;;15.38;6.95;;;;;;;4.87;70.21;100323.84;5069540;28;20034;-77
2020/12/21 09:15:43;;;;;;;15.27;6.57;;;;;;;4.82;69.68;100313.88;5069377;28;20111;-74
2020/12/21 09:18:09;;;;;;;17.65;7.72;;;;;;;4.74;69.96;100304.31;5064551;28;20036;-71
2020/12/21 09:20:35;;;;;;;14.13;6.65;;;;;;;4.81;69.43;100315.72;5069684;28;20086;-72
2020/12/21 09:23:00;;;;;;;13.75;6.38;;;;;;;4.84;69.24;100318.97;5069719;28;20029;-71
2020/12/21 09:25:25;;;;;;;13.48;7.30;;;;;;;4.85;69.40;100315.31;5070856;28;20473;-71
2020/12/21 09:27:51;;;;;;;16.98;6.40;;;;;;;4.85;69.23;100310.81;5071518;28;20034;-73
2020/12/21 09:30:16;;;;;;;15.70;6.95;;;;;;;4.92;69.51;100316.09;5069606;28;20029;-71
2020/12/21 09:32:42;;;;;;;19.23;7.18;;;;;;;4.98;69.50;100307.34;5071205;28;20124;-72
2020/12/21 09:35:07;;;;;;;14.68;7.70;;;;;;;5.03;69.19;100304.88;5071143;28;20028;-73
2020/12/21 09:37:32;;;;;;;16.77;7.35;;;;;;;5.08;68.54;100309.56;5070703;28;20028;-72
2020/12/21 09:39:58;;;;;;;20.70;8.63;;;;;;;5.13;68.80;100304.44;5071313;28;20024;-72
2020/12/21 09:42:24;;;;;;;18.92;6.95;;;;;;;5.12;68.66;100297.50;5070661;28;20101;-72
2020/12/21 09:44:50;;;;;;;16.60;7.57;;;;;;;5.21;67.79;100303.38;5069601;28;20086;-73
2020/12/21 09:47:16;;;;;;;13.75;6.88;;;;;;;5.24;67.56;100309.06;5067771;28;20025;-72
2020/12/21 09:49:41;;;;;;;18.10;6.82;;;;;;;5.22;67.37;100294.41;5068562;28;20544;-73
2020/12/21 09:52:07;;;;;;;13.38;6.97;;;;;;;5.21;67.08;100295.41;5059493;28;20021;-74
2020/12/21 09:54:32;;;;;;;12.50;5.97;;;;;;;5.18;66.97;100287.91;5070207;28;20028;-73
2020/12/21 09:56:58;;;;;;;16.17;6.63;;;;;;;5.05;66.77;100273.63;5069129;28;20111;-73
2020/12/21 09:59:23;;;;;;;20.88;7.78;;;;;;;5.14;67.11;100284.84;5070585;28;20468;-73
2020/12/21 10:01:50;;;;;;;19.67;8.23;;;;;;;5.20;67.26;100286.66;5069387;28;20020;-73
2020/12/21 10:04:15;;;;;;;18.27;8.40;;;;;;;5.21;67.85;100280.34;5066904;28;20035;-73
2020/12/21 10:06:46;;;;;;;21.52;6.95;;;;;;;5.17;67.85;100283.63;5070583;28;20103;-73
2020/12/21 10:09:12;;;;;;;17.83;7.07;;;;;;;5.20;67.55;100284.00;5070036;28;20220;-72
2020/12/21 10:11:37;;;;;;;16.20;7.30;;;;;;;5.16;67.88;100276.69;5070873;28;20094;-72
2020/12/21 10:14:03;;;;;;;15.90;6.80;;;;;;;5.12;67.70;100269.13;5069167;28;20032;-71
2020/12/21 10:16:28;;;;;;;19.33;6.95;;;;;;;5.16;67.97;100279.31;5068546;28;20098;-72
2020/12/21 10:18:53;;;;;;;15.52;7.30;;;;;;;5.16;68.30;100284.63;5070518;28;20063;-72
2020/12/21 10:21:19;;;;;;;15.80;7.28;;;;;;;5.18;68.09;100282.59;5071435;28;20524;-72
2020/12/21 10:23:44;;;;;;;20.77;7.72;;;;;;;5.16;68.36;100280.13;5068900;28;20122;-73
2020/12/21 10:26:09;;;;;;;14.90;6.97;;;;;;;5.14;68.94;100268.94;5068863;28;20399;-72
2020/12/21 10:28:35;;;;;;;22.63;9.65;;;;;;;5.19;69.19;100263.81;5070097;28;20017;-72
2020/12/21 10:31:01;;;;;;;20.42;8.13;;;;;;;5.21;69.58;100271.53;5070222;28;20505;-72
2020/12/21 10:33:27;;;;;;;20.20;8.30;;;;;;;5.20;69.42;100259.31;5068168;28;20140;-71
2020/12/21 10:35:52;;;;;;;17.23;7.63;;;;;;;5.18;69.18;100254.22;5070395;28;20108;-73
2020/12/21 10:38:18;;;;;;;17.83;7.13;;;;;;;5.18;69.04;100254.22;5068874;28;20123;-72
2020/12/21 10:40:43;;;;;;;14.60;7.10;;;;;;;5.20;69.33;100257.50;5068854;28;20039;-73
2020/12/21 10:43:09;;;;;;;17.83;8.65;;;;;;;5.21;69.25;100255.63;5069932;28;20210;-71
2020/12/21 10:45:34;;;;;;;17.23;8.38;;;;;;;5.23;69.08;100257.06;5069229;28;20058;-72
2020/12/21 10:47:59;;;;;;;18.67;8.90;;;;;;;5.24;69.65;100248.06;5069803;28;20082;-73
2020/12/21 10:50:25;;;;;;;18.13;9.07;;;;;;;5.39;69.96;100268.22;5069347;28;20064;-72
2020/12/21 10:52:50;;;;;;;24.88;9.63;;;;;;;5.49;69.10;100270.41;5067860;28;20085;-72
2020/12/21 10:55:18;;;;;;;14.05;6.60;;;;;;;5.43;69.21;100242.88;5071915;28;20042;-72
2020/12/21 10:57:43;;;;;;;15.13;7.70;;;;;;;5.57;68.98;100256.91;5073444;28;20024;-73
2020/12/21 11:00:09;;;;;;;16.60;7.95;;;;;;;5.58;68.32;100246.06;5071922;28;20067;-72
2020/12/21 11:02:34;;;;;;;17.90;8.40;;;;;;;5.61;68.96;100245.66;5072599;28;20029;-72
2020/12/21 11:05:00;;;;;;;19.23;9.00;;;;;;;5.62;68.48;100241.16;5072840;28;20086;-72
2020/12/21 11:07:25;;;;;;;21.63;8.52;;;;;;;5.61;67.98;100250.13;5072328;28;20047;-74
2020/12/21 11:09:51;;;;;;;21.42;8.95;;;;;;;5.57;67.86;100243.63;5071250;28;20108;-73
2020/12/21 11:12:17;;;;;;;19.92;8.50;;;;;;;5.57;68.10;100247.09;5069274;28;20123;-73
2020/12/21 11:14:43;;;;;;;18.13;8.23;;;;;;;5.51;68.60;100242.63;5070919;28;20037;-74
2020/12/21 11:17:08;;;;;;;17.02;6.78;;;;;;;5.45;67.19;100233.69;5070438;28;20535;-72
2020/12/21 11:19:34;;;;;;;22.02;9.25;;;;;;;5.52;67.40;100244.28;5070972;28;20043;-71
2020/12/21 11:21:59;;;;;;;22.60;8.95;;;;;;;5.49;67.59;100238.56;5071486;28;20096;-75